sensor_id;sensor_type;location;lat;lon;timestamp;P1;durP1;ratioP1;P2;durP2;ratioP2
7485;SDS011;3784;54.098;9.998;2022-10-17T00:01:24;12.97;;;4.23;;
7485;SDS011;3784;54.098;9.998;2022-10-17T00:03:50;16.70;;;3.80;;
7485;SDS011;3784;54.098;9.998;2022-10-17T00:06:17;8.33;;;3.30;;
7485;SDS011;3784;54.098;9.998;2022-10-17T00:08:43;14.57;;;4.03;;
7485;SDS011;3784;54.098;9.998;2022-10-17T00:11:17;16.60;;;4.10;;
7485;SDS011;3784;54.098;9.998;2022-10-17T00:13:46;14.63;;;4.43;;
7485;SDS011;3784;54.098;9.998;2022-10-17T00:16:14;14.17;;;4.00;;
7485;SDS011;3784;54.098;9.998;2022-10-17T00:18:48;17.60;;;3.40;;
7485;SDS011;3784;54.098;9.998;2022-10-17T00:21:16;15.73;;;4.53;;
7485;SDS011;3784;54.098;9.998;2022-10-17T00:23:44;12.40;;;3.63;;
7485;SDS011;3784;54.098;9.998;2022-10-17T00:26:10;13.23;;;3.90;;
7485;SDS011;3784;54.098;9.998;2022-10-17T00:28:37;16.20;;;4.23;;
7485;SDS011;3784;54.098;9.998;2022-10-17T00:31:05;13.90;;;3.63;;
7485;SDS011;3784;54.098;9.998;2022-10-17T00:33:33;13.50;;;4.13;;
7485;SDS011;3784;54.098;9.998;2022-10-17T00:36:04;15.57;;;3.93;;
7485;SDS011;3784;54.098;9.998;2022-10-17T00:38:33;11.80;;;3.97;;
7485;SDS011;3784;54.098;9.998;2022-10-17T00:40:59;14.47;;;3.53;;
7485;SDS011;3784;54.098;9.998;2022-10-17T00:43:26;13.73;;;3.73;;
7485;SDS011;3784;54.098;9.998;2022-10-17T00:45:55;17.17;;;3.57;;
7485;SDS011;3784;54.098;9.998;2022-10-17T00:48:22;14.03;;;3.80;;
7485;SDS011;3784;54.098;9.998;2022-10-17T00:50:50;13.47;;;3.40;;
7485;SDS011;3784;54.098;9.998;2022-10-17T00:53:16;11.37;;;4.03;;
7485;SDS011;3784;54.098;9.998;2022-10-17T00:55:45;12.40;;;3.70;;
7485;SDS011;3784;54.098;9.998;2022-10-17T00:58:14;15.57;;;4.03;;
7485;SDS011;3784;54.098;9.998;2022-10-17T01:00:41;13.30;;;4.13;;
7485;SDS011;3784;54.098;9.998;2022-10-17T01:03:08;14.83;;;3.53;;
7485;SDS011;3784;54.098;9.998;2022-10-17T01:05:34;14.13;;;4.07;;
7485;SDS011;3784;54.098;9.998;2022-10-17T01:08:02;18.97;;;4.33;;
7485;SDS011;3784;54.098;9.998;2022-10-17T01:10:30;16.03;;;4.00;;
7485;SDS011;3784;54.098;9.998;2022-10-17T01:14:01;16.70;;;3.80;;
7485;SDS011;3784;54.098;9.998;2022-10-17T01:15:58;15.90;;;4.00;;
7485;SDS011;3784;54.098;9.998;2022-10-17T01:21:30;11.63;;;3.73;;
7485;SDS011;3784;54.098;9.998;2022-10-17T01:24:12;17.87;;;4.13;;
7485;SDS011;3784;54.098;9.998;2022-10-17T01:27:04;16.67;;;4.63;;
7485;SDS011;3784;54.098;9.998;2022-10-17T01:32:34;11.37;;;3.50;;
7485;SDS011;3784;54.098;9.998;2022-10-17T01:35:13;13.03;;;3.83;;
7485;SDS011;3784;54.098;9.998;2022-10-17T01:40:33;14.03;;;4.10;;
7485;SDS011;3784;54.098;9.998;2022-10-17T01:43:06;15.83;;;4.23;;
7485;SDS011;3784;54.098;9.998;2022-10-17T01:45:46;11.17;;;4.03;;
7485;SDS011;3784;54.098;9.998;2022-10-17T01:48:20;11.27;;;3.90;;
7485;SDS011;3784;54.098;9.998;2022-10-17T01:51:12;11.47;;;3.97;;
7485;SDS011;3784;54.098;9.998;2022-10-17T01:53:42;15.80;;;3.90;;
7485;SDS011;3784;54.098;9.998;2022-10-17T01:56:12;19.60;;;4.67;;
7485;SDS011;3784;54.098;9.998;2022-10-17T01:58:44;15.90;;;4.30;;
7485;SDS011;3784;54.098;9.998;2022-10-17T02:01:14;10.53;;;3.70;;
7485;SDS011;3784;54.098;9.998;2022-10-17T02:03:41;14.73;;;3.63;;
7485;SDS011;3784;54.098;9.998;2022-10-17T02:06:09;13.07;;;3.60;;
7485;SDS011;3784;54.098;9.998;2022-10-17T02:08:43;16.63;;;3.80;;
7485;SDS011;3784;54.098;9.998;2022-10-17T02:11:13;15.93;;;5.00;;
7485;SDS011;3784;54.098;9.998;2022-10-17T02:30:48;13.97;;;4.00;;
7485;SDS011;3784;54.098;9.998;2022-10-17T02:33:47;9.03;;;3.43;;
7485;SDS011;3784;54.098;9.998;2022-10-17T02:36:01;12.50;;;3.70;;
7485;SDS011;3784;54.098;9.998;2022-10-17T02:38:30;12.77;;;3.40;;
7485;SDS011;3784;54.098;9.998;2022-10-17T02:40:57;10.23;;;3.23;;
7485;SDS011;3784;54.098;9.998;2022-10-17T02:43:24;13.83;;;3.40;;
7485;SDS011;3784;54.098;9.998;2022-10-17T02:45:51;16.47;;;4.03;;
7485;SDS011;3784;54.098;9.998;2022-10-17T02:53:34;11.30;;;3.47;;
7485;SDS011;3784;54.098;9.998;2022-10-17T02:56:05;10.27;;;3.90;;
7485;SDS011;3784;54.098;9.998;2022-10-17T02:58:35;6.70;;;3.10;;
7485;SDS011;3784;54.098;9.998;2022-10-17T03:01:03;10.00;;;3.20;;
7485;SDS011;3784;54.098;9.998;2022-10-17T03:03:31;10.97;;;3.17;;
7485;SDS011;3784;54.098;9.998;2022-10-17T03:05:57;11.70;;;3.80;;
7485;SDS011;3784;54.098;9.998;2022-10-17T03:08:24;11.97;;;3.63;;
7485;SDS011;3784;54.098;9.998;2022-10-17T03:10:50;9.17;;;3.30;;
7485;SDS011;3784;54.098;9.998;2022-10-17T03:13:17;10.63;;;3.53;;
7485;SDS011;3784;54.098;9.998;2022-10-17T03:15:44;8.73;;;3.30;;
7485;SDS011;3784;54.098;9.998;2022-10-17T03:18:10;10.67;;;3.17;;
7485;SDS011;3784;54.098;9.998;2022-10-17T03:20:37;10.47;;;3.83;;
7485;SDS011;3784;54.098;9.998;2022-10-17T03:23:03;8.13;;;3.33;;
7485;SDS011;3784;54.098;9.998;2022-10-17T03:25:30;9.40;;;3.50;;
7485;SDS011;3784;54.098;9.998;2022-10-17T03:27:57;7.63;;;3.73;;
7485;SDS011;3784;54.098;9.998;2022-10-17T03:30:25;7.87;;;3.27;;
7485;SDS011;3784;54.098;9.998;2022-10-17T03:32:52;8.20;;;3.43;;
7485;SDS011;3784;54.098;9.998;2022-10-17T03:35:18;11.37;;;3.73;;
7485;SDS011;3784;54.098;9.998;2022-10-17T03:37:45;11.20;;;3.70;;
7485;SDS011;3784;54.098;9.998;2022-10-17T03:40:11;12.60;;;4.27;;
7485;SDS011;3784;54.098;9.998;2022-10-17T03:42:38;8.20;;;3.13;;
7485;SDS011;3784;54.098;9.998;2022-10-17T03:45:04;14.23;;;3.57;;
7485;SDS011;3784;54.098;9.998;2022-10-17T03:47:31;9.73;;;3.20;;
7485;SDS011;3784;54.098;9.998;2022-10-17T03:49:58;6.63;;;3.77;;
7485;SDS011;3784;54.098;9.998;2022-10-17T03:52:24;11.20;;;3.90;;
7485;SDS011;3784;54.098;9.998;2022-10-17T03:54:51;8.90;;;3.70;;
7485;SDS011;3784;54.098;9.998;2022-10-17T03:57:18;12.70;;;4.43;;
7485;SDS011;3784;54.098;9.998;2022-10-17T03:59:44;10.50;;;4.40;;
7485;SDS011;3784;54.098;9.998;2022-10-17T04:02:11;10.40;;;4.00;;
7485;SDS011;3784;54.098;9.998;2022-10-17T04:04:37;10.80;;;4.27;;
7485;SDS011;3784;54.098;9.998;2022-10-17T04:07:04;10.90;;;3.97;;
7485;SDS011;3784;54.098;9.998;2022-10-17T04:09:30;7.70;;;3.67;;
7485;SDS011;3784;54.098;9.998;2022-10-17T04:11:57;12.73;;;3.87;;
7485;SDS011;3784;54.098;9.998;2022-10-17T04:14:23;6.63;;;3.13;;
7485;SDS011;3784;54.098;9.998;2022-10-17T04:16:50;9.60;;;3.83;;
7485;SDS011;3784;54.098;9.998;2022-10-17T04:19:16;7.00;;;3.97;;
7485;SDS011;3784;54.098;9.998;2022-10-17T04:21:42;9.33;;;3.30;;
7485;SDS011;3784;54.098;9.998;2022-10-17T04:24:10;9.63;;;3.37;;
7485;SDS011;3784;54.098;9.998;2022-10-17T04:26:36;9.80;;;3.63;;
7485;SDS011;3784;54.098;9.998;2022-10-17T04:29:03;5.97;;;3.43;;
7485;SDS011;3784;54.098;9.998;2022-10-17T04:31:29;7.33;;;3.37;;
7485;SDS011;3784;54.098;9.998;2022-10-17T04:33:56;7.90;;;3.30;;
7485;SDS011;3784;54.098;9.998;2022-10-17T04:36:23;8.27;;;3.37;;
7485;SDS011;3784;54.098;9.998;2022-10-17T04:38:49;7.00;;;3.40;;
7485;SDS011;3784;54.098;9.998;2022-10-17T04:41:16;8.67;;;3.43;;
7485;SDS011;3784;54.098;9.998;2022-10-17T04:43:43;6.37;;;3.20;;
7485;SDS011;3784;54.098;9.998;2022-10-17T04:46:16;8.90;;;3.23;;
7485;SDS011;3784;54.098;9.998;2022-10-17T04:48:42;7.20;;;3.40;;
7485;SDS011;3784;54.098;9.998;2022-10-17T04:51:13;8.30;;;3.17;;
7485;SDS011;3784;54.098;9.998;2022-10-17T04:53:41;6.33;;;3.20;;
7485;SDS011;3784;54.098;9.998;2022-10-17T04:56:09;7.30;;;3.50;;
7485;SDS011;3784;54.098;9.998;2022-10-17T04:58:37;7.30;;;3.50;;
7485;SDS011;3784;54.098;9.998;2022-10-17T05:01:05;6.33;;;3.20;;
7485;SDS011;3784;54.098;9.998;2022-10-17T05:03:36;7.93;;;3.50;;
7485;SDS011;3784;54.098;9.998;2022-10-17T05:06:06;8.47;;;3.37;;
7485;SDS011;3784;54.098;9.998;2022-10-17T05:08:40;4.73;;;3.60;;
7485;SDS011;3784;54.098;9.998;2022-10-17T05:11:17;8.63;;;3.50;;
7485;SDS011;3784;54.098;9.998;2022-10-17T05:13:50;5.23;;;3.13;;
7485;SDS011;3784;54.098;9.998;2022-10-17T05:16:21;6.70;;;3.13;;
7485;SDS011;3784;54.098;9.998;2022-10-17T05:18:50;10.00;;;3.93;;
7485;SDS011;3784;54.098;9.998;2022-10-17T05:21:18;8.40;;;3.97;;
7485;SDS011;3784;54.098;9.998;2022-10-17T05:23:45;6.77;;;3.57;;
7485;SDS011;3784;54.098;9.998;2022-10-17T05:26:12;7.10;;;3.40;;
7485;SDS011;3784;54.098;9.998;2022-10-17T05:28:39;7.00;;;3.43;;
7485;SDS011;3784;54.098;9.998;2022-10-17T05:31:06;7.10;;;3.37;;
7485;SDS011;3784;54.098;9.998;2022-10-17T05:33:33;4.20;;;3.10;;
7485;SDS011;3784;54.098;9.998;2022-10-17T05:36:00;8.70;;;3.40;;
7485;SDS011;3784;54.098;9.998;2022-10-17T05:38:27;6.40;;;3.47;;
7485;SDS011;3784;54.098;9.998;2022-10-17T05:40:57;6.83;;;3.27;;
7485;SDS011;3784;54.098;9.998;2022-10-17T05:43:24;5.53;;;3.47;;
7485;SDS011;3784;54.098;9.998;2022-10-17T05:45:51;6.13;;;3.53;;
7485;SDS011;3784;54.098;9.998;2022-10-17T05:48:18;7.37;;;3.10;;
7485;SDS011;3784;54.098;9.998;2022-10-17T05:50:44;8.47;;;3.70;;
7485;SDS011;3784;54.098;9.998;2022-10-17T05:53:11;4.80;;;3.40;;
7485;SDS011;3784;54.098;9.998;2022-10-17T05:55:37;6.83;;;3.70;;
7485;SDS011;3784;54.098;9.998;2022-10-17T05:58:04;6.57;;;3.20;;
7485;SDS011;3784;54.098;9.998;2022-10-17T06:00:30;5.90;;;3.13;;
7485;SDS011;3784;54.098;9.998;2022-10-17T06:02:57;6.20;;;2.90;;
7485;SDS011;3784;54.098;9.998;2022-10-17T06:05:23;6.57;;;3.30;;
7485;SDS011;3784;54.098;9.998;2022-10-17T06:07:51;5.20;;;3.27;;
7485;SDS011;3784;54.098;9.998;2022-10-17T06:10:23;5.73;;;3.07;;
7485;SDS011;3784;54.098;9.998;2022-10-17T06:12:49;7.00;;;3.80;;
7485;SDS011;3784;54.098;9.998;2022-10-17T06:15:16;5.67;;;3.90;;
7485;SDS011;3784;54.098;9.998;2022-10-17T06:17:42;7.73;;;4.50;;
7485;SDS011;3784;54.098;9.998;2022-10-17T06:20:09;5.37;;;3.77;;
7485;SDS011;3784;54.098;9.998;2022-10-17T06:22:35;11.57;;;4.80;;
7485;SDS011;3784;54.098;9.998;2022-10-17T06:25:02;9.27;;;4.50;;
7485;SDS011;3784;54.098;9.998;2022-10-17T06:27:29;7.60;;;4.57;;
7485;SDS011;3784;54.098;9.998;2022-10-17T06:29:55;7.63;;;4.33;;
7485;SDS011;3784;54.098;9.998;2022-10-17T06:32:22;6.63;;;3.43;;
7485;SDS011;3784;54.098;9.998;2022-10-17T06:34:48;4.00;;;3.33;;
7485;SDS011;3784;54.098;9.998;2022-10-17T06:37:14;3.40;;;2.73;;
7485;SDS011;3784;54.098;9.998;2022-10-17T06:39:41;3.73;;;2.90;;
7485;SDS011;3784;54.098;9.998;2022-10-17T06:42:07;4.23;;;3.10;;
7485;SDS011;3784;54.098;9.998;2022-10-17T06:44:34;5.40;;;3.30;;
7485;SDS011;3784;54.098;9.998;2022-10-17T06:47:00;4.83;;;3.53;;
7485;SDS011;3784;54.098;9.998;2022-10-17T06:49:27;4.73;;;3.30;;
7485;SDS011;3784;54.098;9.998;2022-10-17T06:51:53;4.97;;;3.43;;
7485;SDS011;3784;54.098;9.998;2022-10-17T06:54:20;8.03;;;3.50;;
7485;SDS011;3784;54.098;9.998;2022-10-17T06:56:47;3.47;;;3.17;;
7485;SDS011;3784;54.098;9.998;2022-10-17T06:59:13;4.53;;;3.53;;
7485;SDS011;3784;54.098;9.998;2022-10-17T07:01:40;3.70;;;3.30;;
7485;SDS011;3784;54.098;9.998;2022-10-17T07:04:12;4.70;;;3.20;;
7485;SDS011;3784;54.098;9.998;2022-10-17T07:06:39;4.93;;;3.10;;
7485;SDS011;3784;54.098;9.998;2022-10-17T07:09:05;3.67;;;3.00;;
7485;SDS011;3784;54.098;9.998;2022-10-17T07:11:32;4.63;;;2.73;;
7485;SDS011;3784;54.098;9.998;2022-10-17T07:14:00;8.40;;;3.13;;
7485;SDS011;3784;54.098;9.998;2022-10-17T07:16:27;3.53;;;2.90;;
7485;SDS011;3784;54.098;9.998;2022-10-17T07:18:53;5.20;;;2.80;;
7485;SDS011;3784;54.098;9.998;2022-10-17T07:21:20;3.10;;;2.80;;
7485;SDS011;3784;54.098;9.998;2022-10-17T07:23:47;3.47;;;2.83;;
7485;SDS011;3784;54.098;9.998;2022-10-17T07:26:14;3.90;;;2.90;;
7485;SDS011;3784;54.098;9.998;2022-10-17T07:28:43;2.90;;;2.60;;
7485;SDS011;3784;54.098;9.998;2022-10-17T07:31:11;3.57;;;2.83;;
7485;SDS011;3784;54.098;9.998;2022-10-17T07:33:41;3.90;;;2.70;;
7485;SDS011;3784;54.098;9.998;2022-10-17T07:36:08;5.03;;;2.53;;
7485;SDS011;3784;54.098;9.998;2022-10-17T07:38:34;3.23;;;2.90;;
7485;SDS011;3784;54.098;9.998;2022-10-17T07:41:02;3.93;;;2.80;;
7485;SDS011;3784;54.098;9.998;2022-10-17T07:43:30;3.13;;;2.63;;
7485;SDS011;3784;54.098;9.998;2022-10-17T07:45:57;4.03;;;2.47;;
7485;SDS011;3784;54.098;9.998;2022-10-17T07:48:23;3.97;;;2.73;;
7485;SDS011;3784;54.098;9.998;2022-10-17T07:50:50;6.73;;;2.67;;
7485;SDS011;3784;54.098;9.998;2022-10-17T07:53:16;4.50;;;2.70;;
7485;SDS011;3784;54.098;9.998;2022-10-17T07:55:43;3.07;;;2.20;;
7485;SDS011;3784;54.098;9.998;2022-10-17T07:58:11;4.07;;;2.63;;
7485;SDS011;3784;54.098;9.998;2022-10-17T08:00:38;2.30;;;2.10;;
7485;SDS011;3784;54.098;9.998;2022-10-17T08:03:05;3.10;;;2.47;;
7485;SDS011;3784;54.098;9.998;2022-10-17T08:05:32;2.90;;;2.30;;
7485;SDS011;3784;54.098;9.998;2022-10-17T08:07:59;5.50;;;2.40;;
7485;SDS011;3784;54.098;9.998;2022-10-17T08:10:25;3.03;;;2.53;;
7485;SDS011;3784;54.098;9.998;2022-10-17T08:12:55;4.77;;;2.60;;
7485;SDS011;3784;54.098;9.998;2022-10-17T08:15:23;3.20;;;2.30;;
7485;SDS011;3784;54.098;9.998;2022-10-17T08:17:57;4.83;;;2.50;;
7485;SDS011;3784;54.098;9.998;2022-10-17T08:20:24;3.47;;;2.23;;
7485;SDS011;3784;54.098;9.998;2022-10-17T08:22:51;3.77;;;2.00;;
7485;SDS011;3784;54.098;9.998;2022-10-17T08:25:21;3.60;;;2.30;;
7485;SDS011;3784;54.098;9.998;2022-10-17T08:27:48;2.57;;;1.97;;
7485;SDS011;3784;54.098;9.998;2022-10-17T08:30:15;4.07;;;2.30;;
7485;SDS011;3784;54.098;9.998;2022-10-17T08:32:42;3.57;;;2.37;;
7485;SDS011;3784;54.098;9.998;2022-10-17T08:35:08;4.40;;;2.23;;
7485;SDS011;3784;54.098;9.998;2022-10-17T08:37:35;3.40;;;2.17;;
7485;SDS011;3784;54.098;9.998;2022-10-17T08:40:02;2.73;;;2.20;;
7485;SDS011;3784;54.098;9.998;2022-10-17T08:43:30;3.47;;;2.60;;
7485;SDS011;3784;54.098;9.998;2022-10-17T08:46:02;4.93;;;2.50;;
7485;SDS011;3784;54.098;9.998;2022-10-17T08:48:32;3.63;;;2.40;;
7485;SDS011;3784;54.098;9.998;2022-10-17T08:51:04;4.17;;;2.57;;
7485;SDS011;3784;54.098;9.998;2022-10-17T08:53:44;3.63;;;2.67;;
7485;SDS011;3784;54.098;9.998;2022-10-17T08:56:19;5.47;;;2.37;;
7485;SDS011;3784;54.098;9.998;2022-10-17T08:59:03;3.50;;;2.40;;
7485;SDS011;3784;54.098;9.998;2022-10-17T09:01:32;5.27;;;2.80;;
7485;SDS011;3784;54.098;9.998;2022-10-17T09:06:38;2.97;;;2.23;;
7485;SDS011;3784;54.098;9.998;2022-10-17T09:20:11;2.30;;;2.10;;
7485;SDS011;3784;54.098;9.998;2022-10-17T09:22:44;3.00;;;2.40;;
7485;SDS011;3784;54.098;9.998;2022-10-17T09:25:15;4.70;;;2.50;;
7485;SDS011;3784;54.098;9.998;2022-10-17T09:27:45;3.10;;;2.70;;
7485;SDS011;3784;54.098;9.998;2022-10-17T09:30:34;3.80;;;2.70;;
7485;SDS011;3784;54.098;9.998;2022-10-17T09:33:18;5.10;;;2.60;;
7485;SDS011;3784;54.098;9.998;2022-10-17T09:36:01;3.47;;;2.40;;
7485;SDS011;3784;54.098;9.998;2022-10-17T09:38:54;6.43;;;2.40;;
7485;SDS011;3784;54.098;9.998;2022-10-17T09:41:54;2.43;;;2.13;;
7485;SDS011;3784;54.098;9.998;2022-10-17T09:44:36;3.90;;;2.53;;
7485;SDS011;3784;54.098;9.998;2022-10-17T09:47:21;4.17;;;2.77;;
7485;SDS011;3784;54.098;9.998;2022-10-17T09:49:55;6.20;;;2.73;;
7485;SDS011;3784;54.098;9.998;2022-10-17T09:52:26;3.80;;;2.60;;
7485;SDS011;3784;54.098;9.998;2022-10-17T09:55:00;4.20;;;2.80;;
7485;SDS011;3784;54.098;9.998;2022-10-17T09:57:28;5.53;;;2.93;;
7485;SDS011;3784;54.098;9.998;2022-10-17T10:00:32;4.33;;;3.20;;
7485;SDS011;3784;54.098;9.998;2022-10-17T10:03:14;4.07;;;2.97;;
7485;SDS011;3784;54.098;9.998;2022-10-17T10:05:41;4.33;;;2.60;;
7485;SDS011;3784;54.098;9.998;2022-10-17T10:08:13;3.97;;;2.73;;
7485;SDS011;3784;54.098;9.998;2022-10-17T10:10:41;4.60;;;2.83;;
7485;SDS011;3784;54.098;9.998;2022-10-17T10:15:48;4.63;;;2.50;;
7485;SDS011;3784;54.098;9.998;2022-10-17T10:21:08;4.67;;;2.70;;
7485;SDS011;3784;54.098;9.998;2022-10-17T10:23:41;6.60;;;3.30;;
7485;SDS011;3784;54.098;9.998;2022-10-17T10:26:20;5.07;;;3.00;;
7485;SDS011;3784;54.098;9.998;2022-10-17T10:28:52;3.33;;;3.00;;
7485;SDS011;3784;54.098;9.998;2022-10-17T10:31:28;8.43;;;3.40;;
7485;SDS011;3784;54.098;9.998;2022-10-17T10:33:56;5.67;;;2.77;;
7485;SDS011;3784;54.098;9.998;2022-10-17T10:36:24;6.17;;;3.83;;
7485;SDS011;3784;54.098;9.998;2022-10-17T10:38:55;8.10;;;3.90;;
7485;SDS011;3784;54.098;9.998;2022-10-17T10:41:24;3.23;;;2.93;;
7485;SDS011;3784;54.098;9.998;2022-10-17T10:43:52;6.17;;;3.00;;
7485;SDS011;3784;54.098;9.998;2022-10-17T10:46:26;6.60;;;3.47;;
7485;SDS011;3784;54.098;9.998;2022-10-17T10:48:55;4.40;;;3.10;;
7485;SDS011;3784;54.098;9.998;2022-10-17T10:51:31;5.17;;;3.27;;
7485;SDS011;3784;54.098;9.998;2022-10-17T10:56:28;5.13;;;3.30;;
7485;SDS011;3784;54.098;9.998;2022-10-17T11:04:35;5.83;;;3.73;;
7485;SDS011;3784;54.098;9.998;2022-10-17T11:07:06;4.80;;;3.27;;
7485;SDS011;3784;54.098;9.998;2022-10-17T11:12:27;4.63;;;3.20;;
7485;SDS011;3784;54.098;9.998;2022-10-17T11:15:02;6.37;;;2.97;;
7485;SDS011;3784;54.098;9.998;2022-10-17T11:17:39;3.33;;;2.97;;
7485;SDS011;3784;54.098;9.998;2022-10-17T11:22:46;6.10;;;3.57;;
7485;SDS011;3784;54.098;9.998;2022-10-17T11:25:17;5.10;;;3.10;;
7485;SDS011;3784;54.098;9.998;2022-10-17T11:28:01;4.37;;;3.77;;
7485;SDS011;3784;54.098;9.998;2022-10-17T11:30:35;4.20;;;3.10;;
7485;SDS011;3784;54.098;9.998;2022-10-17T11:34:14;6.43;;;3.60;;
7485;SDS011;3784;54.098;9.998;2022-10-17T11:36:30;5.03;;;3.33;;
7485;SDS011;3784;54.098;9.998;2022-10-17T11:39:01;4.90;;;3.33;;
7485;SDS011;3784;54.098;9.998;2022-10-17T11:41:35;6.57;;;3.07;;
7485;SDS011;3784;54.098;9.998;2022-10-17T11:46:52;6.57;;;3.57;;
7485;SDS011;3784;54.098;9.998;2022-10-17T11:49:27;5.53;;;3.17;;
7485;SDS011;3784;54.098;9.998;2022-10-17T11:55:09;5.07;;;3.40;;
7485;SDS011;3784;54.098;9.998;2022-10-17T11:57:47;6.20;;;2.87;;
7485;SDS011;3784;54.098;9.998;2022-10-17T12:19:51;6.93;;;4.63;;
7485;SDS011;3784;54.098;9.998;2022-10-17T12:22:21;6.90;;;5.00;;
7485;SDS011;3784;54.098;9.998;2022-10-17T12:24:55;8.87;;;5.03;;
7485;SDS011;3784;54.098;9.998;2022-10-17T12:27:30;6.30;;;3.87;;
7485;SDS011;3784;54.098;9.998;2022-10-17T12:29:59;5.43;;;4.17;;
7485;SDS011;3784;54.098;9.998;2022-10-17T12:32:26;4.97;;;4.53;;
7485;SDS011;3784;54.098;9.998;2022-10-17T12:35:01;7.17;;;4.47;;
7485;SDS011;3784;54.098;9.998;2022-10-17T12:45:44;5.97;;;4.60;;
7485;SDS011;3784;54.098;9.998;2022-10-17T12:56:37;8.50;;;6.63;;
7485;SDS011;3784;54.098;9.998;2022-10-17T12:59:07;12.20;;;8.80;;
7485;SDS011;3784;54.098;9.998;2022-10-17T13:01:39;8.77;;;7.20;;
7485;SDS011;3784;54.098;9.998;2022-10-17T13:04:09;11.57;;;8.60;;
7485;SDS011;3784;54.098;9.998;2022-10-17T13:06:37;8.30;;;7.60;;
7485;SDS011;3784;54.098;9.998;2022-10-17T13:09:23;9.33;;;8.00;;
7485;SDS011;3784;54.098;9.998;2022-10-17T13:11:52;11.97;;;9.40;;
7485;SDS011;3784;54.098;9.998;2022-10-17T13:14:20;11.17;;;8.90;;
7485;SDS011;3784;54.098;9.998;2022-10-17T13:16:55;11.00;;;9.70;;
7485;SDS011;3784;54.098;9.998;2022-10-17T13:19:41;10.70;;;9.60;;
7485;SDS011;3784;54.098;9.998;2022-10-17T13:22:15;10.27;;;9.27;;
7485;SDS011;3784;54.098;9.998;2022-10-17T13:24:43;11.40;;;9.83;;
7485;SDS011;3784;54.098;9.998;2022-10-17T13:27:27;12.17;;;10.23;;
7485;SDS011;3784;54.098;9.998;2022-10-17T13:29:55;10.67;;;9.60;;
7485;SDS011;3784;54.098;9.998;2022-10-17T13:32:25;12.27;;;9.93;;
7485;SDS011;3784;54.098;9.998;2022-10-17T13:35:14;11.07;;;9.60;;
7485;SDS011;3784;54.098;9.998;2022-10-17T13:37:42;11.70;;;10.60;;
7485;SDS011;3784;54.098;9.998;2022-10-17T13:40:19;13.07;;;11.73;;
7485;SDS011;3784;54.098;9.998;2022-10-17T13:43:20;13.10;;;11.77;;
7485;SDS011;3784;54.098;9.998;2022-10-17T13:46:35;14.57;;;12.93;;
7485;SDS011;3784;54.098;9.998;2022-10-17T13:49:08;13.47;;;12.17;;
7485;SDS011;3784;54.098;9.998;2022-10-17T13:51:40;13.97;;;12.40;;
7485;SDS011;3784;54.098;9.998;2022-10-17T13:54:18;15.17;;;12.43;;
7485;SDS011;3784;54.098;9.998;2022-10-17T13:56:58;14.80;;;13.40;;
7485;SDS011;3784;54.098;9.998;2022-10-17T13:59:28;15.63;;;13.00;;
7485;SDS011;3784;54.098;9.998;2022-10-17T14:01:59;15.80;;;13.40;;
7485;SDS011;3784;54.098;9.998;2022-10-17T14:04:28;14.60;;;13.07;;
7485;SDS011;3784;54.098;9.998;2022-10-17T14:07:20;18.87;;;14.03;;
7485;SDS011;3784;54.098;9.998;2022-10-17T14:09:50;15.40;;;12.43;;
7485;SDS011;3784;54.098;9.998;2022-10-17T14:12:17;13.90;;;12.53;;
7485;SDS011;3784;54.098;9.998;2022-10-17T14:14:49;14.90;;;13.23;;
7485;SDS011;3784;54.098;9.998;2022-10-17T14:17:35;17.90;;;15.47;;
7485;SDS011;3784;54.098;9.998;2022-10-17T14:20:04;18.70;;;15.67;;
7485;SDS011;3784;54.098;9.998;2022-10-17T14:22:51;16.37;;;14.83;;
7485;SDS011;3784;54.098;9.998;2022-10-17T14:25:38;16.70;;;14.87;;
7485;SDS011;3784;54.098;9.998;2022-10-17T14:30:35;17.40;;;15.40;;
7485;SDS011;3784;54.098;9.998;2022-10-17T14:33:22;17.57;;;15.73;;
7485;SDS011;3784;54.098;9.998;2022-10-17T14:35:51;17.27;;;15.47;;
7485;SDS011;3784;54.098;9.998;2022-10-17T14:38:19;18.67;;;16.77;;
7485;SDS011;3784;54.098;9.998;2022-10-17T14:40:57;20.63;;;16.27;;
7485;SDS011;3784;54.098;9.998;2022-10-17T14:43:54;20.73;;;18.20;;
7485;SDS011;3784;54.098;9.998;2022-10-17T14:46:22;18.83;;;16.93;;
7485;SDS011;3784;54.098;9.998;2022-10-17T14:48:53;22.50;;;19.23;;
7485;SDS011;3784;54.098;9.998;2022-10-17T14:51:21;20.20;;;17.37;;
7485;SDS011;3784;54.098;9.998;2022-10-17T14:54:04;23.60;;;18.03;;
7485;SDS011;3784;54.098;9.998;2022-10-17T14:56:49;19.27;;;17.20;;
7485;SDS011;3784;54.098;9.998;2022-10-17T14:59:17;19.20;;;17.20;;
7485;SDS011;3784;54.098;9.998;2022-10-17T15:02:07;23.27;;;20.90;;
7485;SDS011;3784;54.098;9.998;2022-10-17T15:04:34;21.93;;;19.93;;
7485;SDS011;3784;54.098;9.998;2022-10-17T15:07:01;19.10;;;17.30;;
7485;SDS011;3784;54.098;9.998;2022-10-17T15:09:27;19.70;;;17.80;;
7485;SDS011;3784;54.098;9.998;2022-10-17T15:11:54;20.80;;;18.50;;
7485;SDS011;3784;54.098;9.998;2022-10-17T15:14:21;21.57;;;19.27;;
7485;SDS011;3784;54.098;9.998;2022-10-17T15:16:47;18.63;;;16.83;;
7485;SDS011;3784;54.098;9.998;2022-10-17T15:19:14;20.63;;;18.60;;
7485;SDS011;3784;54.098;9.998;2022-10-17T15:21:40;20.70;;;18.60;;
7485;SDS011;3784;54.098;9.998;2022-10-17T15:24:12;18.40;;;16.30;;
7485;SDS011;3784;54.098;9.998;2022-10-17T15:26:40;20.90;;;17.47;;
7485;SDS011;3784;54.098;9.998;2022-10-17T15:29:08;20.53;;;17.23;;
7485;SDS011;3784;54.098;9.998;2022-10-17T15:31:39;19.13;;;17.33;;
7485;SDS011;3784;54.098;9.998;2022-10-17T15:34:06;17.20;;;15.60;;
7485;SDS011;3784;54.098;9.998;2022-10-17T15:36:35;18.67;;;16.87;;
7485;SDS011;3784;54.098;9.998;2022-10-17T15:39:04;18.00;;;16.30;;
7485;SDS011;3784;54.098;9.998;2022-10-17T15:41:31;18.93;;;15.93;;
7485;SDS011;3784;54.098;9.998;2022-10-17T15:43:58;19.77;;;17.67;;
7485;SDS011;3784;54.098;9.998;2022-10-17T15:46:26;18.53;;;16.70;;
7485;SDS011;3784;54.098;9.998;2022-10-17T15:48:53;18.00;;;15.50;;
7485;SDS011;3784;54.098;9.998;2022-10-17T15:51:21;22.53;;;18.50;;
7485;SDS011;3784;54.098;9.998;2022-10-17T15:53:47;19.73;;;17.67;;
7485;SDS011;3784;54.098;9.998;2022-10-17T15:56:33;15.93;;;14.30;;
7485;SDS011;3784;54.098;9.998;2022-10-17T15:59:02;21.13;;;16.77;;
7485;SDS011;3784;54.098;9.998;2022-10-17T16:01:31;18.07;;;16.17;;
7485;SDS011;3784;54.098;9.998;2022-10-17T16:03:58;19.03;;;16.10;;
7485;SDS011;3784;54.098;9.998;2022-10-17T16:06:25;18.47;;;14.60;;
7485;SDS011;3784;54.098;9.998;2022-10-17T16:08:52;15.30;;;13.70;;
7485;SDS011;3784;54.098;9.998;2022-10-17T16:11:38;15.27;;;13.67;;
7485;SDS011;3784;54.098;9.998;2022-10-17T16:14:07;17.07;;;14.33;;
7485;SDS011;3784;54.098;9.998;2022-10-17T16:16:36;14.03;;;12.63;;
7485;SDS011;3784;54.098;9.998;2022-10-17T16:19:03;13.43;;;12.13;;
7485;SDS011;3784;54.098;9.998;2022-10-17T16:21:31;13.83;;;11.93;;
7485;SDS011;3784;54.098;9.998;2022-10-17T16:23:59;16.87;;;13.83;;
7485;SDS011;3784;54.098;9.998;2022-10-17T16:26:26;12.77;;;11.40;;
7485;SDS011;3784;54.098;9.998;2022-10-17T16:28:53;12.53;;;10.30;;
7485;SDS011;3784;54.098;9.998;2022-10-17T16:31:22;13.37;;;11.97;;
7485;SDS011;3784;54.098;9.998;2022-10-17T16:33:51;12.27;;;11.07;;
7485;SDS011;3784;54.098;9.998;2022-10-17T16:36:18;15.23;;;12.47;;
7485;SDS011;3784;54.098;9.998;2022-10-17T16:38:45;13.20;;;12.00;;
7485;SDS011;3784;54.098;9.998;2022-10-17T16:41:16;13.33;;;11.97;;
7485;SDS011;3784;54.098;9.998;2022-10-17T16:43:47;14.47;;;12.93;;
7485;SDS011;3784;54.098;9.998;2022-10-17T16:46:14;16.10;;;14.43;;
7485;SDS011;3784;54.098;9.998;2022-10-17T16:48:42;16.63;;;14.23;;
7485;SDS011;3784;54.098;9.998;2022-10-17T16:51:09;15.40;;;13.50;;
7485;SDS011;3784;54.098;9.998;2022-10-17T16:53:37;14.73;;;13.30;;
7485;SDS011;3784;54.098;9.998;2022-10-17T16:56:10;15.30;;;13.87;;
7485;SDS011;3784;54.098;9.998;2022-10-17T16:58:39;15.67;;;14.07;;
7485;SDS011;3784;54.098;9.998;2022-10-17T17:01:13;18.07;;;16.33;;
7485;SDS011;3784;54.098;9.998;2022-10-17T17:03:42;16.33;;;14.70;;
7485;SDS011;3784;54.098;9.998;2022-10-17T17:06:14;16.27;;;14.63;;
7485;SDS011;3784;54.098;9.998;2022-10-17T17:08:44;19.17;;;17.23;;
7485;SDS011;3784;54.098;9.998;2022-10-17T17:11:11;18.47;;;16.27;;
7485;SDS011;3784;54.098;9.998;2022-10-17T17:13:40;16.63;;;15.03;;
7485;SDS011;3784;54.098;9.998;2022-10-17T17:16:08;16.27;;;14.73;;